createdAt,value
2017-11-06T00:00:49.421Z,12.60
2017-11-06T00:03:16.968Z,15.27
2017-11-06T00:05:44.514Z,12.67
2017-11-06T00:08:12.094Z,12.10
2017-11-06T00:10:39.646Z,13.33
2017-11-06T00:13:07.521Z,13.33
2017-11-06T00:15:35.068Z,12.63
2017-11-06T00:18:02.610Z,14.63
2017-11-06T00:20:30.156Z,12.43
2017-11-06T00:22:57.721Z,13.20
2017-11-06T00:25:25.266Z,12.67
2017-11-06T00:27:52.853Z,14.00
2017-11-06T00:30:20.399Z,14.67
2017-11-06T00:32:47.990Z,13.00
2017-11-06T00:35:15.541Z,15.10
2017-11-06T00:37:43.080Z,12.50
2017-11-06T00:40:10.629Z,13.00
2017-11-06T00:42:38.596Z,12.70
2017-11-06T00:45:06.144Z,12.80
2017-11-06T00:47:33.728Z,12.73
2017-11-06T00:50:01.294Z,13.50
2017-11-06T00:52:28.881Z,12.60
2017-11-06T00:54:56.433Z,13.57
2017-11-06T00:57:24.092Z,11.23
2017-11-06T00:59:51.634Z,13.57
2017-11-06T01:02:19.228Z,12.40
2017-11-06T01:04:46.763Z,12.87
2017-11-06T01:07:14.314Z,12.20
2017-11-06T01:09:41.861Z,11.50
2017-11-06T01:12:10.336Z,12.40
2017-11-06T01:14:38.737Z,13.47
2017-11-06T01:17:07.232Z,11.90
2017-11-06T01:19:34.773Z,14.10
2017-11-06T01:22:02.350Z,11.93
2017-11-06T01:24:29.900Z,12.47
2017-11-06T01:26:57.505Z,13.17
2017-11-06T01:29:25.056Z,12.17
2017-11-06T01:31:52.610Z,12.77
2017-11-06T01:34:20.164Z,11.97
2017-11-06T01:36:47.834Z,12.80
2017-11-06T01:39:15.379Z,13.47
2017-11-06T01:41:42.957Z,12.30
2017-11-06T01:44:10.503Z,13.90
2017-11-06T01:46:38.941Z,12.67
2017-11-06T01:49:07.136Z,13.87
2017-11-06T01:51:34.691Z,14.00
2017-11-06T01:54:02.236Z,13.77
2017-11-06T01:56:29.783Z,13.20
2017-11-06T01:58:57.337Z,13.03
2017-11-06T02:01:24.944Z,12.97
2017-11-06T02:03:52.523Z,11.73
2017-11-06T02:06:20.066Z,13.20
2017-11-06T02:08:47.600Z,13.17
2017-11-06T02:11:15.149Z,13.10
2017-11-06T02:13:42.696Z,13.90
2017-11-06T02:16:10.293Z,12.40
2017-11-06T02:18:37.848Z,12.43
2017-11-06T02:21:05.460Z,13.80
2017-11-06T02:23:33.004Z,12.57
2017-11-06T02:26:00.550Z,13.47
2017-11-06T02:28:28.117Z,13.20
2017-11-06T02:30:55.653Z,12.20
2017-11-06T02:33:23.205Z,12.93
2017-11-06T02:35:50.749Z,13.10
2017-11-06T02:38:18.294Z,12.50
2017-11-06T02:40:45.833Z,12.30
2017-11-06T02:43:13.400Z,11.33
2017-11-06T02:45:40.944Z,11.47
2017-11-06T02:48:08.485Z,11.10
2017-11-06T02:50:36.064Z,12.67
2017-11-06T02:53:03.864Z,12.80
2017-11-06T02:55:31.419Z,11.30
2017-11-06T02:57:58.960Z,10.93
2017-11-06T03:00:43.430Z,10.93
2017-11-06T03:03:10.977Z,10.33
2017-11-06T03:05:39.231Z,11.20
2017-11-06T03:08:13.585Z,9.10
2017-11-06T03:10:41.122Z,9.43
2017-11-06T03:13:08.657Z,9.90
2017-11-06T03:15:36.214Z,9.63
2017-11-06T03:18:04.537Z,10.00
2017-11-06T03:20:33.093Z,9.70
2017-11-06T03:23:00.645Z,9.27
2017-11-06T03:25:28.242Z,11.10
2017-11-06T03:27:56.586Z,8.07
2017-11-06T03:30:24.125Z,8.30
2017-11-06T03:32:51.715Z,9.50
2017-11-06T03:35:19.253Z,8.60
2017-11-06T03:37:46.785Z,8.43
2017-11-06T03:40:15.097Z,8.70
2017-11-06T03:42:42.625Z,8.63
2017-11-06T03:45:10.281Z,7.97
2017-11-06T03:47:38.629Z,8.17
2017-11-06T03:50:07.157Z,8.87
2017-11-06T03:52:34.697Z,8.80
2017-11-06T03:55:02.237Z,8.07
2017-11-06T03:57:29.826Z,8.60
2017-11-06T03:59:57.378Z,7.20
2017-11-06T04:02:25.752Z,8.60
2017-11-06T04:04:53.292Z,8.07
2017-11-06T04:07:20.888Z,9.83
2017-11-06T04:09:48.493Z,9.60
2017-11-06T04:12:16.028Z,7.13
2017-11-06T04:14:43.576Z,8.43
2017-11-06T04:17:11.147Z,8.10
2017-11-06T04:19:38.725Z,8.47
2017-11-06T04:22:06.338Z,9.23
2017-11-06T04:24:33.886Z,8.40
2017-11-06T04:27:01.438Z,8.10
2017-11-06T04:29:29.024Z,8.00
2017-11-06T04:31:56.574Z,9.20
2017-11-06T04:34:24.152Z,8.47
2017-11-06T04:36:51.693Z,8.50
2017-11-06T04:39:19.268Z,10.40
2017-11-06T04:41:47.733Z,9.63
2017-11-06T04:44:15.277Z,8.73
2017-11-06T04:46:42.836Z,9.03
2017-11-06T04:49:10.390Z,10.40
2017-11-06T04:51:38.999Z,10.00
2017-11-06T04:54:07.236Z,8.87
2017-11-06T04:56:34.817Z,10.33
2017-11-06T04:59:02.366Z,9.20
2017-11-06T05:01:29.945Z,8.93
2017-11-06T05:03:57.493Z,7.43
2017-11-06T05:06:25.041Z,10.37
2017-11-06T05:08:52.597Z,9.30
2017-11-06T05:11:20.154Z,9.00
2017-11-06T05:13:47.693Z,8.57
2017-11-06T05:16:15.253Z,9.10
2017-11-06T05:18:42.835Z,9.63
2017-11-06T05:21:10.391Z,9.30
2017-11-06T05:23:37.933Z,9.70
2017-11-06T05:26:05.492Z,9.50
2017-11-06T05:28:33.029Z,9.00
2017-11-06T05:31:00.562Z,8.90
2017-11-06T05:33:28.118Z,10.30
2017-11-06T05:35:55.652Z,8.77
2017-11-06T05:38:23.200Z,9.43
2017-11-06T05:40:50.745Z,9.50
2017-11-06T05:43:18.281Z,9.90
2017-11-06T05:45:45.832Z,7.00
2017-11-06T05:48:13.414Z,9.90
2017-11-06T05:50:40.952Z,7.30
2017-11-06T05:53:08.496Z,8.87
2017-11-06T05:55:36.671Z,7.87
2017-11-06T05:58:04.208Z,7.93
2017-11-06T06:00:32.468Z,6.93
2017-11-06T06:03:00.798Z,7.47
2017-11-06T06:05:28.341Z,7.77
2017-11-06T06:07:55.926Z,6.90
2017-11-06T06:10:23.478Z,7.37
2017-11-06T06:12:51.824Z,6.83
2017-11-06T06:15:20.133Z,7.83
2017-11-06T06:17:48.464Z,7.17
2017-11-06T06:20:17.098Z,7.20
2017-11-06T06:22:44.648Z,7.77
2017-11-06T06:25:12.191Z,8.90
2017-11-06T06:27:39.735Z,7.70
2017-11-06T06:30:07.273Z,8.50
2017-11-06T06:32:34.805Z,8.27
2017-11-06T06:35:03.299Z,8.80
2017-11-06T06:37:30.836Z,7.10
2017-11-06T06:39:58.419Z,8.60
2017-11-06T06:42:25.951Z,7.83
2017-11-06T06:44:53.489Z,9.00
2017-11-06T06:47:21.022Z,8.03
2017-11-06T06:49:48.571Z,8.43
2017-11-06T06:52:16.105Z,8.03
2017-11-06T06:54:43.641Z,7.83
2017-11-06T06:57:11.216Z,8.67
2017-11-06T06:59:38.762Z,9.80
2017-11-06T07:02:06.295Z,7.57
2017-11-06T07:04:34.724Z,7.73
2017-11-06T07:07:03.032Z,8.37
2017-11-06T07:09:30.577Z,9.23
2017-11-06T07:11:58.140Z,8.53
2017-11-06T07:14:26.498Z,7.83
2017-11-06T07:16:54.063Z,8.97
2017-11-06T07:19:21.614Z,10.73
2017-11-06T07:21:49.194Z,10.57
2017-11-06T07:24:16.734Z,9.40
2017-11-06T07:26:45.041Z,9.63
2017-11-06T07:29:12.564Z,8.40
2017-11-06T07:31:40.090Z,9.40
2017-11-06T07:34:08.417Z,9.73
2017-11-06T07:36:36.785Z,9.40
2017-11-06T07:39:05.325Z,9.30
2017-11-06T07:41:32.872Z,9.10
2017-11-06T07:44:01.359Z,8.90
2017-11-06T07:46:28.890Z,9.33
2017-11-06T07:48:57.345Z,9.43
2017-11-06T07:51:25.787Z,10.30
2017-11-06T07:53:54.107Z,8.53
2017-11-06T07:56:22.345Z,9.77
2017-11-06T07:58:50.635Z,8.70
2017-11-06T08:01:18.170Z,8.63
2017-11-06T08:03:45.759Z,9.07
2017-11-06T08:06:13.299Z,9.10
2017-11-06T08:08:40.876Z,9.40
2017-11-06T08:11:08.657Z,9.60
2017-11-06T08:13:36.967Z,10.27
2017-11-06T08:16:05.284Z,8.87
2017-11-06T08:18:32.868Z,9.47
2017-11-06T08:21:01.302Z,10.10
2017-11-06T08:23:28.875Z,9.57
2017-11-06T08:25:56.411Z,9.68
2017-11-06T08:28:24.777Z,8.50
2017-11-06T08:30:52.311Z,8.53
2017-11-06T08:33:19.847Z,8.73
2017-11-06T08:35:47.393Z,9.23
2017-11-06T08:38:14.937Z,8.87
2017-11-06T08:40:42.496Z,8.70
2017-11-06T08:43:10.028Z,11.00
2017-11-06T08:45:38.240Z,8.27
2017-11-06T08:48:05.770Z,8.80
2017-11-06T08:50:33.304Z,10.07
2017-11-06T08:53:00.888Z,9.67
2017-11-06T08:55:29.271Z,8.10
2017-11-06T08:57:56.801Z,10.67
2017-11-06T09:00:24.337Z,9.13
2017-11-06T09:02:52.741Z,9.77
2017-11-06T09:05:20.277Z,9.50
2017-11-06T09:07:47.817Z,10.07
2017-11-06T09:10:17.283Z,9.80
2017-11-06T09:12:44.841Z,9.77
2017-11-06T09:15:13.279Z,10.27
2017-11-06T09:17:40.814Z,9.40
2017-11-06T09:20:08.612Z,9.60
2017-11-06T09:22:36.320Z,10.17
2017-11-06T09:25:04.916Z,9.70
2017-11-06T09:27:33.290Z,9.33
2017-11-06T09:30:00.839Z,9.00
2017-11-06T09:32:28.403Z,8.73
2017-11-06T09:34:55.934Z,9.17
2017-11-06T09:37:23.508Z,8.60
2017-11-06T09:39:51.037Z,9.20
2017-11-06T09:42:18.773Z,8.40
2017-11-06T09:44:46.296Z,9.40
2017-11-06T09:47:13.826Z,9.83
2017-11-06T09:49:41.415Z,9.40
2017-11-06T09:52:09.731Z,9.43
2017-11-06T09:54:38.630Z,8.53
2017-11-06T09:57:07.576Z,8.83
2017-11-06T09:59:37.216Z,8.53
2017-11-06T10:02:04.749Z,8.63
2017-11-06T10:04:32.282Z,8.50
2017-11-06T10:06:59.824Z,8.87
2017-11-06T10:09:27.442Z,8.53
2017-11-06T10:11:54.982Z,8.30
2017-11-06T10:14:22.513Z,9.50
2017-11-06T10:16:50.053Z,8.23
2017-11-06T10:19:17.579Z,9.60
2017-11-06T10:21:45.116Z,8.37
2017-11-06T10:24:12.652Z,9.50
2017-11-06T10:26:40.188Z,7.97
2017-11-06T10:29:07.715Z,8.80
2017-11-06T10:31:35.264Z,8.63
2017-11-06T10:34:02.796Z,8.90
2017-11-06T10:36:30.384Z,8.87
2017-11-06T10:38:57.921Z,9.83
2017-11-06T10:41:25.463Z,8.73
2017-11-06T10:43:53.014Z,9.80
2017-11-06T10:46:20.562Z,11.10
2017-11-06T10:48:48.102Z,9.20
2017-11-06T10:51:15.642Z,9.90
2017-11-06T10:53:43.183Z,9.47
2017-11-06T10:56:10.722Z,8.97
2017-11-06T10:58:38.355Z,9.90
2017-11-06T11:01:05.887Z,8.87
2017-11-06T11:03:33.431Z,9.47
2017-11-06T11:06:00.967Z,11.80
2017-11-06T11:08:28.499Z,9.80
2017-11-06T11:10:56.033Z,10.00
2017-11-06T11:13:23.567Z,11.60
2017-11-06T11:15:51.886Z,10.10
2017-11-06T11:18:19.441Z,9.73
2017-11-06T11:20:46.972Z,9.60
2017-11-06T11:23:14.517Z,9.00
2017-11-06T11:25:42.049Z,11.10
2017-11-06T11:28:09.580Z,10.20
2017-11-06T11:30:38.237Z,9.77
2017-11-06T11:33:05.766Z,9.17
2017-11-06T11:35:33.304Z,9.20
2017-11-06T11:38:00.840Z,9.40
2017-11-06T11:40:28.375Z,8.57
2017-11-06T11:42:55.906Z,9.03
2017-11-06T11:45:27.126Z,9.13
2017-11-06T11:47:54.764Z,8.53
2017-11-06T11:50:22.293Z,9.27
2017-11-06T11:52:49.880Z,9.77
2017-11-06T11:55:17.434Z,10.13
2017-11-06T11:57:44.975Z,8.60
2017-11-06T12:00:12.510Z,8.27
2017-11-06T12:02:40.040Z,9.53
2017-11-06T12:05:07.605Z,8.70
2017-11-06T12:07:35.947Z,8.57
2017-11-06T12:10:03.479Z,7.40
2017-11-06T12:12:31.014Z,8.23
2017-11-06T12:14:58.549Z,8.00
2017-11-06T12:17:26.080Z,8.47
2017-11-06T12:19:53.611Z,7.70
2017-11-06T12:22:21.152Z,7.27
2017-11-06T12:24:48.689Z,9.67
2017-11-06T12:27:16.271Z,6.43
2017-11-06T12:29:43.811Z,5.77
2017-11-06T12:32:11.339Z,6.53
2017-11-06T12:34:38.873Z,6.83
2017-11-06T12:37:06.399Z,6.27
2017-11-06T12:39:33.937Z,6.37
2017-11-06T12:42:01.465Z,6.23
2017-11-06T12:44:28.996Z,6.70
2017-11-06T12:46:57.251Z,6.60
2017-11-06T12:49:24.781Z,7.10
2017-11-06T12:51:52.325Z,5.57
2017-11-06T12:54:19.911Z,6.20
2017-11-06T12:56:47.456Z,6.00
2017-11-06T12:59:15.000Z,5.60
2017-11-06T13:01:42.541Z,5.60
2017-11-06T13:04:10.079Z,5.57
2017-11-06T13:06:37.615Z,5.87
2017-11-06T13:09:06.219Z,5.37
2017-11-06T13:11:33.759Z,5.20
2017-11-06T13:14:01.322Z,5.30
2017-11-06T13:16:28.852Z,6.10
2017-11-06T13:18:56.400Z,6.57
2017-11-06T13:21:23.937Z,4.70
2017-11-06T13:23:52.663Z,6.10
2017-11-06T13:26:20.191Z,5.50
2017-11-06T13:28:47.732Z,6.13
2017-11-06T13:31:15.263Z,4.87
2017-11-06T13:33:42.792Z,5.83
2017-11-06T13:36:10.315Z,4.70
2017-11-06T13:38:37.842Z,4.20
2017-11-06T13:41:05.379Z,4.30
2017-11-06T13:43:32.921Z,4.70
2017-11-06T13:46:00.457Z,4.80
2017-11-06T13:48:27.991Z,4.70
2017-11-06T13:50:55.520Z,5.47
2017-11-06T13:53:23.048Z,5.30
2017-11-06T13:55:50.589Z,4.87
2017-11-06T13:58:18.129Z,4.80
2017-11-06T14:00:46.553Z,4.20
2017-11-06T14:03:14.091Z,5.50
2017-11-06T14:05:41.625Z,4.00
2017-11-06T14:08:09.158Z,4.70
2017-11-06T14:10:37.530Z,4.70
2017-11-06T14:13:05.970Z,3.80
2017-11-06T14:15:33.496Z,4.50
2017-11-06T14:18:01.031Z,3.77
2017-11-06T14:20:29.497Z,5.00
2017-11-06T14:22:57.026Z,5.10
2017-11-06T14:25:24.551Z,4.47
2017-11-06T14:27:52.870Z,4.23
2017-11-06T14:30:21.226Z,4.23
2017-11-06T14:32:48.754Z,4.97
2017-11-06T14:35:16.277Z,4.53
2017-11-06T14:37:43.810Z,4.73
2017-11-06T14:40:11.340Z,4.10
2017-11-06T14:42:38.876Z,5.30
2017-11-06T14:45:06.423Z,4.13
2017-11-06T14:47:33.977Z,5.57
2017-11-06T14:50:01.516Z,5.17
2017-11-06T14:52:30.425Z,4.80
2017-11-06T14:54:57.952Z,5.63
2017-11-06T14:57:25.484Z,5.30
2017-11-06T14:59:53.009Z,5.07
2017-11-06T15:02:20.549Z,6.77
2017-11-06T15:04:48.131Z,7.10
2017-11-06T15:07:16.477Z,5.40
2017-11-06T15:09:44.015Z,7.00
2017-11-06T15:12:11.544Z,6.37
2017-11-06T15:14:39.858Z,5.37
2017-11-06T15:17:07.386Z,6.60
2017-11-06T15:19:34.915Z,6.03
2017-11-06T15:22:02.481Z,5.90
2017-11-06T15:24:30.925Z,6.57
2017-11-06T15:26:59.480Z,6.13
2017-11-06T15:29:27.585Z,6.43
2017-11-06T15:31:55.120Z,5.50
2017-11-06T15:34:22.680Z,5.03
2017-11-06T15:36:50.992Z,5.60
2017-11-06T15:39:19.229Z,6.00
2017-11-06T15:41:46.768Z,5.70
2017-11-06T15:44:15.222Z,6.70
2017-11-06T15:46:43.074Z,6.13
2017-11-06T15:49:10.599Z,6.93
2017-11-06T15:51:38.134Z,7.50
2017-11-06T15:54:06.480Z,9.07
2017-11-06T15:56:34.793Z,7.20
2017-11-06T15:59:02.333Z,7.37
2017-11-06T16:01:29.873Z,7.20
2017-11-06T16:03:57.405Z,8.37
2017-11-06T16:06:24.938Z,11.13
2017-11-06T16:08:52.577Z,10.40
2017-11-06T16:11:20.133Z,10.30
2017-11-06T16:13:47.669Z,9.77
2017-11-06T16:16:15.206Z,10.10
2017-11-06T16:18:42.744Z,9.43
2017-11-06T16:21:10.282Z,10.30
2017-11-06T16:23:37.862Z,10.10
2017-11-06T16:26:05.403Z,12.23
2017-11-06T16:28:33.204Z,16.07
2017-11-06T16:31:01.648Z,13.73
2017-11-06T16:33:29.221Z,11.00
2017-11-06T16:35:56.788Z,8.20
2017-11-06T16:38:24.789Z,10.07
2017-11-06T16:40:52.328Z,13.10
2017-11-06T16:43:21.791Z,13.00
2017-11-06T16:45:49.334Z,14.13
2017-11-06T16:48:16.897Z,14.50
2017-11-06T16:50:44.434Z,14.00
2017-11-06T16:53:11.976Z,14.10
2017-11-06T16:55:39.513Z,13.93
2017-11-06T16:58:07.042Z,16.83
2017-11-06T17:00:34.576Z,13.53
2017-11-06T17:03:02.776Z,16.03
2017-11-06T17:05:30.318Z,13.63
2017-11-06T17:07:57.900Z,15.70
2017-11-06T17:10:25.445Z,13.80
2017-11-06T17:12:52.983Z,13.97
2017-11-06T17:15:20.532Z,15.30
2017-11-06T17:17:48.071Z,11.90
2017-11-06T17:20:17.380Z,13.60
2017-11-06T17:22:44.917Z,13.87
2017-11-06T17:25:12.456Z,10.20
2017-11-06T17:27:40.012Z,13.17
2017-11-06T17:30:07.581Z,11.47
2017-11-06T17:32:35.116Z,11.53
2017-11-06T17:35:02.657Z,13.77
2017-11-06T17:37:30.197Z,11.53
2017-11-06T17:39:57.820Z,14.77
2017-11-06T17:42:25.359Z,27.77
2017-11-06T17:44:52.903Z,33.37
2017-11-06T17:47:20.545Z,40.80
2017-11-06T17:49:48.077Z,43.80
2017-11-06T17:52:15.615Z,39.60
2017-11-06T17:54:43.889Z,56.70
2017-11-06T17:57:12.281Z,34.50
2017-11-06T17:59:39.820Z,19.40
2017-11-06T18:02:07.365Z,25.27
2017-11-06T18:04:34.933Z,21.00
2017-11-06T18:07:02.486Z,25.93
2017-11-06T18:09:30.048Z,37.33
2017-11-06T18:11:57.600Z,22.13
2017-11-06T18:14:26.050Z,29.90
2017-11-06T18:16:53.597Z,26.00
2017-11-06T18:19:21.148Z,21.60
2017-11-06T18:21:48.694Z,18.77
2017-11-06T18:24:16.292Z,13.73
2017-11-06T18:26:43.848Z,13.83
2017-11-06T18:29:12.635Z,14.50
2017-11-06T18:31:40.187Z,15.77
2017-11-06T18:34:07.734Z,13.10
2017-11-06T18:36:35.305Z,12.47
2017-11-06T18:39:02.865Z,13.13
2017-11-06T18:41:30.414Z,11.10
2017-11-06T18:43:58.022Z,12.87
2017-11-06T18:46:25.558Z,18.50
2017-11-06T18:48:53.106Z,16.43
2017-11-06T18:51:20.672Z,16.90
2017-11-06T18:53:48.282Z,21.07
2017-11-06T18:56:15.844Z,23.60
2017-11-06T18:58:43.656Z,27.43
2017-11-06T19:01:11.233Z,20.07
2017-11-06T19:03:38.916Z,26.80
2017-11-06T19:06:06.444Z,21.57
2017-11-06T19:08:33.985Z,18.67
2017-11-06T19:11:01.520Z,22.10
2017-11-06T19:13:29.121Z,17.57
2017-11-06T19:15:56.655Z,19.60
2017-11-06T19:18:24.236Z,16.10
2017-11-06T19:20:51.793Z,16.50
2017-11-06T19:23:23.353Z,15.40
2017-11-06T19:25:50.935Z,15.83
2017-11-06T19:28:18.517Z,23.20
2017-11-06T19:30:46.053Z,22.03
2017-11-06T19:33:13.580Z,24.50
2017-11-06T19:35:41.705Z,25.60
2017-11-06T19:38:10.421Z,14.70
2017-11-06T19:40:37.963Z,16.00
2017-11-06T19:43:05.576Z,16.93
2017-11-06T19:45:33.122Z,13.63
2017-11-06T19:48:00.657Z,16.37
2017-11-06T19:50:28.200Z,17.20
2017-11-06T19:52:55.744Z,18.33
2017-11-06T19:55:23.284Z,17.40
2017-11-06T19:57:50.853Z,18.17
2017-11-06T20:00:21.225Z,17.40
2017-11-06T20:02:49.575Z,18.20
2017-11-06T20:05:17.113Z,18.60
2017-11-06T20:07:44.646Z,19.00
2017-11-06T20:10:12.187Z,19.57
2017-11-06T20:12:41.102Z,19.80
2017-11-06T20:15:12.161Z,20.15
2017-11-06T20:17:40.049Z,23.27
2017-11-06T20:20:07.605Z,24.93
2017-11-06T20:22:35.687Z,23.03
2017-11-06T20:25:03.322Z,22.93
2017-11-06T20:27:31.166Z,35.80
2017-11-06T20:29:58.717Z,36.55
2017-11-06T20:32:26.269Z,31.07
2017-11-06T20:34:53.856Z,32.00
2017-11-06T20:37:21.424Z,27.50
2017-11-06T20:39:49.820Z,19.70
2017-11-06T20:42:17.371Z,20.43
2017-11-06T20:44:44.918Z,20.40
2017-11-06T20:47:12.883Z,20.97
2017-11-06T20:49:40.549Z,22.30
2017-11-06T20:52:08.113Z,23.00
2017-11-06T20:54:36.577Z,27.07
2017-11-06T20:57:04.179Z,28.40
2017-11-06T20:59:31.712Z,32.90
2017-11-06T21:01:59.284Z,27.27
2017-11-06T21:04:26.901Z,33.93
2017-11-06T21:06:55.464Z,35.90
2017-11-06T21:09:23.860Z,37.27
2017-11-06T21:11:51.397Z,39.93
2017-11-06T21:14:19.087Z,34.07
2017-11-06T21:16:47.562Z,31.80
2017-11-06T21:19:16.091Z,25.70
2017-11-06T21:21:43.684Z,26.77
2017-11-06T21:24:11.239Z,25.77
2017-11-06T21:26:38.876Z,25.93
2017-11-06T21:29:06.459Z,26.93
2017-11-06T21:31:34.004Z,23.30
2017-11-06T21:34:01.576Z,20.60
2017-11-06T21:36:29.376Z,24.00
2017-11-06T21:38:57.019Z,17.57
2017-11-06T21:41:24.565Z,19.43
2017-11-06T21:43:55.257Z,18.07
2017-11-06T21:46:23.449Z,17.90
2017-11-06T21:48:52.936Z,16.80
2017-11-06T21:51:20.487Z,16.83
2017-11-06T21:53:48.866Z,18.57
2017-11-06T21:56:17.284Z,15.70
2017-11-06T21:58:45.600Z,18.73
2017-11-06T22:01:14.915Z,18.80
2017-11-06T22:03:43.675Z,17.60
2017-11-06T22:06:11.466Z,19.70
2017-11-06T22:08:40.281Z,20.40
2017-11-06T22:11:07.823Z,20.10
2017-11-06T22:13:37.156Z,20.50
2017-11-06T22:16:04.767Z,19.47
2017-11-06T22:18:33.716Z,20.77
2017-11-06T22:21:01.330Z,22.87
2017-11-06T22:23:28.875Z,20.13
2017-11-06T22:25:56.420Z,19.90
2017-11-06T22:28:24.004Z,19.73
2017-11-06T22:30:51.533Z,22.37
2017-11-06T22:33:19.105Z,19.20
2017-11-06T22:35:47.101Z,18.77
2017-11-06T22:38:14.635Z,18.27
2017-11-06T22:40:42.166Z,19.70
2017-11-06T22:43:09.705Z,18.63
2017-11-06T22:45:37.292Z,19.00
2017-11-06T22:48:04.833Z,20.70
2017-11-06T22:50:32.421Z,18.63
2017-11-06T22:53:00.269Z,20.90
2017-11-06T22:55:27.912Z,19.97
2017-11-06T22:57:55.441Z,17.00
2017-11-06T23:00:22.978Z,17.73
2017-11-06T23:02:50.513Z,21.23
2017-11-06T23:05:18.045Z,18.93
2017-11-06T23:07:45.576Z,17.80
2017-11-06T23:10:13.131Z,18.70
2017-11-06T23:12:40.702Z,19.50
2017-11-06T23:15:08.242Z,14.43
2017-11-06T23:17:35.813Z,18.03
2017-11-06T23:20:03.344Z,21.63
2017-11-06T23:22:31.687Z,16.67
2017-11-06T23:24:59.230Z,20.20
2017-11-06T23:27:27.688Z,19.87
2017-11-06T23:29:55.276Z,18.70
2017-11-06T23:32:22.799Z,23.17
2017-11-06T23:34:50.343Z,24.90
2017-11-06T23:37:18.782Z,23.40
2017-11-06T23:39:46.396Z,19.70
2017-11-06T23:42:13.939Z,19.60
2017-11-06T23:44:41.492Z,19.87
2017-11-06T23:47:09.028Z,22.97
2017-11-06T23:49:36.565Z,24.83
2017-11-06T23:52:04.139Z,29.13
2017-11-06T23:54:31.881Z,27.47
2017-11-06T23:56:59.440Z,32.80
2017-11-06T23:59:27.122Z,24.00
